Cheyenne, OK (73628)

5:15 PM CST on December 19, 2014 (GMT -0600)
Clinton-Sherman | Change Station
CLOSE
Current Station
Airport
Location: Clinton-Sherman,
Elevation: 1923 ft
Nearby Weather Stations

Elev 1923 ft 35.34 °N, 99.20 °W | Updated 1 hour ago

Overcast
Overcast
44 °F
Feels Like 42 °F
N
5
Wind Variable Wind from NNW

Today
High -- | Low -- °F
--% Chance of Precip.
Yesterday
High -- | Low -- °F
Precip. -- in
7:43 AM 5:28 PM
Waning Crescent, 6% visible
Pressure 30.17 in
Visibility 9.0 miles
Clouds Mostly Cloudy 2900 ft
Overcast 9000 ft
Windchill 42 °F
Dew Point 36 °F
Humidity 73%
Rainfall 0.00 in
Snow Depth Not available.
UV 0 out of 12
Pollen 6.10 out of 12
Air Quality Not available.
Flu Activity Not available.
METAR KCSM 192214Z 34004KT 9SM BKN029 OVC090 07/02 A3017 RMK AO2 T00670022

More Conditions Fewer Conditions

Pressure 30.17 in
Visibility 9.0 miles
Clouds Mostly Cloudy 2900 ft
Overcast 9000 ft
Windchill 42 °F
Dew Point 36 °F
Humidity 73%
Rainfall 0.00 in
Snow Depth Not available.
UV 0 out of 12
Pollen 6.10 out of 12
Air Quality Not available.
Flu Activity Not available.
METAR KCSM 192214Z 34004KT 9SM BKN029 OVC090 07/02 A3017 RMK AO2 T00670022

More Conditions Fewer Conditions

10-Day Weather Forecast

Almanac

Astronomy

Dec. 19, 2014 Rise Set
Actual Time
Civil Twilight
Nautical Twilight
Astronomical Twilight
Moon
Length of Visible Light
Length of Day
Tomorrow will be .
, % of the Moon is Illuminated

Today's Extremes

State Highs State Lows

Community

WunderPhotos

Upload Photos

1,779,073 photos uploaded!

WunderBlogs® & News

Nearby

Air Quality

  Air Quality AQ Index Pollutant
Not available.

Snow Depth

Station Depth Elevation

Earthquake Activity

City Distance Mag. Time & Date
Minimum magnitude displayed is 2.5.

Coastal Water Temperatures

Place Temperature

Nearby Weather Stations